Terminal Aerodrome Forecast
Issued by NWS Mt. Holly, NJ

Current Version | Previous Version | Text Only | Print | Product List | Glossary On
Versions: 1 2 3 4 5 6 7 8 9 10 11 12 13 14 15 16 17 18 19 20
139
FTUS41 KPHI 240438 AAB
TAFILG
TAF AMD
KILG 240438Z 2405/2424 22015KT P6SM SCT070 WS020/23045KT
      TEMPO 2407/2408 5SM -SHRA BKN025
     FM240800 22008KT 3SM SHRA BKN025
     FM241000 24006KT 6SM -SHRA OVC020
     FM241200 33015KT P6SM SCT020 OVC040
     FM241500 30014G24KT P6SM SCT030
     FM241900 27013G23KT P6SM SKC=

USA.gov is the U.S. government's official web portal to all federal, state and local government web resources and services.